SBOSBO RTM / EHRD
Speedbird OnlineSpeedbird Online RTM / EHRD

Rotterdam The Hague Airport
21:24 13.3°C

Location Rotterdam, Netherlands
Latitude: 51.956902
Longitude: 4.43722
Web Airport Website | Wikipedia
Altitude -5 Meter / -15 Feet
Distance 301 KM / 187 Miles
from London.
Time Zone UTC +2 hours (Europe/Amsterdam)
Codes IATA: RTM
ICAO: EHRD
Currency £1 equals EUR 1.12
Runways
RunwayLength (m)Surface
062200Asphalt
242200Asphalt
Radio
TypeDescriptionFrequency
APPRotterdam Approach122.99
ARRSchiphol Arrival118.405
ATISATIS128.565
DEPSchiphol Departure121.205
FISAmsterdam Information124.3
GND/CDLRotterdam Clearance Delivery122.18
TWRRotterdam Tower118.205
Live ATC
METAR EHRD 241855Z AUTO 02005KT 340V050 9999 NSC 13/10 Q1015 NOSIG
TAF TAF EHRD 241659Z 2418/2524 02008KT 9999 FEW030 PROB30 TEMPO 2501/2507 4000 MIFG BR BECMG 2513/2516 30006KT
Weather As Of 24 Sep 2022 21:24
Description Broken clouds
Wind 9 km/h from North (20°)
Cloud Cover 75%
Precipitation Rain: none, Snow: none
Sunrise 07:31
Sunset 19:37
Lounges Prima Vista Lounge, International Terminal
Rotations During the last 90 days there were
260 flights from LCY
261 flights to LCY


© 2017-2022 Speedbird Online